Sumise Maru No.32 — JD3832 — position and weather

sailwx.info

Track history (hours):
 
Tides and Currents Weather Stations Pressure Air Temp Water Temp Dewpoint Dewpoint Depression Visibility Wind Speed Wind Dir Waves Ship Positions

Sumise Maru No.32

Last reported at 2017-Dec-11 13:58 UTC. Time now 2017-Dec-14 00:19 UTC.
Position N 34°45' E 134°22'.

Length 78 m; draft 4.3 m.

Type: Cargo ship. MMSI: 431006221.

Date/timePositionNaut miles runAvg speedWind from/ knotsBaromVisibWave heightAir tempDewpointWater temp
2017-Dec-11 13:58N 34°45' E 134°22'3 0.3
2017-Dec-11 04:32N 34°42' E 134°24'1 7.2
2017-Dec-11 04:27N 34°42' E 134°24'612.3
2017-Dec-11 04:00N 34°43' E 134°31'612.3
2017-Dec-11 03:30N 34°44' E 134°38'2 0.5
2017-Dec-10 22:16N 34°46' E 134°40'0 0.0
2017-Dec-10 21:46N 34°46' E 134°40'0 0.0
2017-Dec-10 21:22N 34°46' E 134°40'0 0.0
2017-Dec-10 20:40N 34°46' E 134°40'0 0.0
2017-Dec-10 13:10N 34°46' E 134°40'0 0.0
2017-Dec-10 11:10N 34°46' E 134°40'0 0.0
2017-Dec-09 23:27N 34°47' E 134°40'2 4.2
2017-Dec-09 22:56N 34°45' E 134°39'511.1
2017-Dec-09 22:30N 34°43' E 134°33'912.1
2017-Dec-09 21:48N 34°42' E 134°23'3 8.9
2017-Dec-09 21:30N 34°45' E 134°22'0 0.1
2017-Dec-09 21:00N 34°45' E 134°22'0 0.0
2017-Dec-09 19:42N 34°45' E 134°22'0 0.0
2017-Dec-09 19:18N 34°45' E 134°22'0 0.0
2017-Dec-09 19:00N 34°45' E 134°22'0 0.1
2017-Dec-09 18:30N 34°45' E 134°22'3 6.2
2017-Dec-09 18:00N 34°42' E 134°24'0 0.0
2017-Dec-09 10:28N 34°42' E 134°24'0 0.0
2017-Dec-09 09:28N 34°42' E 134°24'0 0.0
2017-Dec-09 08:16N 34°42' E 134°24'0 0.0
2017-Dec-09 04:04N 34°42' E 134°24'3 5.2
2017-Dec-09 03:35N 34°44' E 134°22'1 8.3
2017-Dec-09 03:30N 34°45' E 134°22'0 0.0
2017-Dec-08 19:00N 34°45' E 134°22'0 0.0
2017-Dec-08 18:24N 34°45' E 134°22'0 0.0
2017-Dec-08 11:19N 34°45' E 134°22'0 0.1
2017-Dec-08 10:55N 34°45' E 134°22'3 5.3
2017-Dec-08 10:25N 34°42' E 134°22'1 2.1
2017-Dec-08 09:58N 34°42' E 134°23'3 5.1
2017-Dec-08 09:28N 34°42' E 134°26'5 9.9
2017-Dec-08 09:00N 34°42' E 134°32'611.1
2017-Dec-08 08:27N 34°41' E 134°39'510.7
2017-Dec-08 08:00N 34°40' E 134°45'510.1
2017-Dec-08 07:30N 34°38' E 134°50'4 8.6
2017-Dec-08 07:00N 34°37' E 134°56'5 9.8
2017-Dec-08 06:30N 34°37' E 135°02'510.4
2017-Dec-08 06:00N 34°36' E 135°08'611.6
2017-Dec-08 05:31N 34°37' E 135°15'5 9.7
2017-Dec-08 05:00N 34°42' E 135°14'0 0.1
2017-Dec-08 04:30N 34°42' E 135°14'0 0.0
2017-Dec-08 04:00N 34°42' E 135°14'0 0.0
2017-Dec-08 03:30N 34°42' E 135°14'0 0.0
2017-Dec-08 03:00N 34°42' E 135°14'0 0.0
2017-Dec-08 02:30N 34°42' E 135°14'0 0.0
2017-Dec-08 02:00N 34°42' E 135°14'0 0.0
2017-Dec-08 01:30N 34°42' E 135°14'0 0.0
2017-Dec-08 01:00N 34°42' E 135°14'0 0.0
2017-Dec-08 00:30N 34°42' E 135°14'0 0.0
2017-Dec-08 00:00N 34°42' E 135°14'0 0.0
2017-Dec-07 23:30N 34°42' E 135°14'1 2.0
2017-Dec-07 23:01N 34°41' E 135°15'3 5.7
2017-Dec-07 22:30N 34°40' E 135°18'3 5.9
2017-Dec-07 22:01N 34°42' E 135°16'0 0.1
2017-Dec-07 21:28N 34°42' E 135°16'0 0.0
2017-Dec-07 20:58N 34°42' E 135°16'0 0.0
2017-Dec-07 20:28N 34°42' E 135°16'0 0.0
2017-Dec-07 19:58N 34°42' E 135°16'0 0.0
2017-Dec-07 19:28N 34°42' E 135°16'0 0.0
2017-Dec-07 18:58N 34°42' E 135°16'0 0.0
2017-Dec-07 18:28N 34°42' E 135°16'0 0.0
2017-Dec-07 17:58N 34°42' E 135°16'0 0.0
2017-Dec-07 17:28N 34°42' E 135°16'0 0.0
2017-Dec-07 16:58N 34°42' E 135°16'0 0.0
2017-Dec-07 16:28N 34°42' E 135°16'0 0.0
2017-Dec-07 15:58N 34°42' E 135°16'0 0.0
2017-Dec-07 15:28N 34°42' E 135°16'0 0.0
2017-Dec-07 14:58N 34°42' E 135°16'0 0.0
2017-Dec-07 14:28N 34°42' E 135°16'0 0.0
2017-Dec-07 13:58N 34°42' E 135°16'0 0.0
2017-Dec-07 13:28N 34°42' E 135°16'0 0.0
2017-Dec-07 12:58N 34°42' E 135°16'0 0.0
2017-Dec-07 12:28N 34°42' E 135°16'0 0.0
2017-Dec-07 11:58N 34°42' E 135°16'0 0.0
2017-Dec-07 11:28N 34°42' E 135°16'0 0.0
2017-Dec-07 10:58N 34°42' E 135°16'0 0.0
2017-Dec-07 10:28N 34°42' E 135°16'0 0.0
2017-Dec-07 09:58N 34°42' E 135°16'0 0.0
2017-Dec-07 09:28N 34°42' E 135°16'0 0.0
2017-Dec-07 08:58N 34°42' E 135°16'0 0.0
2017-Dec-07 08:28N 34°42' E 135°16'0 0.0
2017-Dec-07 07:58N 34°42' E 135°16'0 0.0
2017-Dec-07 07:28N 34°42' E 135°16'0 0.0
2017-Dec-07 06:58N 34°42' E 135°16'0 0.0
2017-Dec-07 06:28N 34°42' E 135°16'0 0.0
2017-Dec-07 05:58N 34°42' E 135°16'0 0.0
2017-Dec-07 05:28N 34°42' E 135°16'0 0.0
2017-Dec-07 04:58N 34°42' E 135°16'0 0.0
2017-Dec-07 04:28N 34°42' E 135°16'0 0.0
2017-Dec-07 03:58N 34°42' E 135°16'0 0.0
2017-Dec-07 03:28N 34°42' E 135°16'0 0.0
2017-Dec-07 02:58N 34°42' E 135°16'0 0.0
2017-Dec-07 02:28N 34°42' E 135°16'0 0.0
2017-Dec-07 01:58N 34°42' E 135°16'0 0.0
2017-Dec-07 01:25N 34°42' E 135°16'0 0.0
2017-Dec-07 00:58N 34°42' E 135°16'0 0.0
2017-Dec-07 00:28N 34°42' E 135°16'0 0.0
2017-Dec-06 23:58N 34°42' E 135°16'0 0.0
2017-Dec-06 23:28N 34°42' E 135°16'0 0.0
2017-Dec-06 22:58N 34°42' E 135°16'0 0.0
2017-Dec-06 22:28N 34°42' E 135°16'0 0.0
2017-Dec-06 21:58N 34°42' E 135°16'0 0.0
2017-Dec-06 21:28N 34°42' E 135°16'0 0.0
2017-Dec-06 20:58N 34°42' E 135°16'  
2017-Dec-04 10:27N 34°40' E 139°02'2112.8
2017-Dec-04 08:48N 34°55' E 139°20'411.1
2017-Dec-04 08:28N 34°57' E 139°24'511.1
2017-Dec-04 08:00N 34°60' E 139°29'611.3
2017-Dec-04 07:30N 35°03' E 139°35'613.0
2017-Dec-04 07:00N 35°07' E 139°41'612.7
2017-Dec-04 06:31N 35°12' E 139°46'611.8
2017-Dec-04 06:01N 35°18' E 139°44'612.0
2017-Dec-04 05:31N 35°23' E 139°42'510.9
2017-Dec-04 05:00N 35°29' E 139°40'0 0.2
2017-Dec-04 04:28N 35°29' E 139°40'0 0.0
2017-Dec-04 03:58N 35°29' E 139°40'0 0.0
2017-Dec-04 03:28N 35°29' E 139°40'0 0.0
2017-Dec-04 02:58N 35°29' E 139°40'0 0.0
2017-Dec-04 02:28N 35°29' E 139°40'0 0.0
2017-Dec-04 01:58N 35°29' E 139°40'0 0.0
2017-Dec-04 01:29N 35°29' E 139°40'0 0.0
2017-Dec-04 00:58N 35°29' E 139°40'0 0.0
2017-Dec-04 00:28N 35°29' E 139°40'0 0.0
2017-Dec-03 23:58N 35°29' E 139°40'0 0.0
2017-Dec-03 23:31N 35°29' E 139°40'0 0.0
2017-Dec-03 23:01N 35°29' E 139°40'2 4.0
2017-Dec-03 22:31N 35°27' E 139°41'1 2.3
2017-Dec-03 22:00N 35°26' E 139°42'0 0.0
2017-Dec-03 21:30N 35°26' E 139°42'0 0.0
2017-Dec-03 21:00N 35°26' E 139°42'0 0.0
2017-Dec-03 20:30N 35°26' E 139°42'0 0.0
2017-Dec-03 20:00N 35°26' E 139°42'0 0.0
2017-Dec-03 19:30N 35°26' E 139°42'0 0.0
2017-Dec-03 19:00N 35°26' E 139°42'0 0.0
2017-Dec-03 18:30N 35°26' E 139°42'0 0.1
2017-Dec-03 18:00N 35°26' E 139°42'0 0.0
2017-Dec-03 17:30N 35°26' E 139°42'0 0.1
2017-Dec-03 17:00N 35°26' E 139°42'0 0.0
2017-Dec-03 16:30N 35°26' E 139°42'0 0.1
2017-Dec-03 16:00N 35°26' E 139°42'0 0.0
2017-Dec-03 15:30N 35°26' E 139°42'0 0.0
2017-Dec-03 15:00N 35°26' E 139°42'0 0.0
2017-Dec-03 14:30N 35°26' E 139°42'0 0.1
2017-Dec-03 14:00N 35°26' E 139°42'2 3.2
2017-Dec-03 13:31N 35°25' E 139°43'3 5.1
2017-Dec-03 13:01N 35°22' E 139°43'611.7
2017-Dec-03 12:30N 35°17' E 139°46'510.5
2017-Dec-03 12:01N 35°12' E 139°47'611.6
2017-Dec-03 11:30N 35°06' E 139°44'612.3
2017-Dec-03 11:01N 35°01' E 139°39'713.7
2017-Dec-03 10:30N 34°58' E 139°32'713.9
2017-Dec-03 10:00N 34°53' E 139°25'713.5
2017-Dec-03 09:30N 34°49' E 139°19'713.6
2017-Dec-03 09:00N 34°45' E 139°13'713.9
2017-Dec-03 08:30N 34°40' E 139°07'611.9
2017-Dec-03 08:00N 34°36' E 139°01'612.4
2017-Dec-03 07:30N 34°33' E 138°55'913.4
2017-Dec-03 06:49N 34°30' E 138°44'413.5
2017-Dec-03 06:30N 34°29' E 138°39'1013.0
2017-Dec-03 05:46N 34°26' E 138°28'612.6
2017-Dec-03 05:19N 34°25' E 138°22'412.4
2017-Dec-03 05:00N 34°24' E 138°17'712.5
2017-Dec-03 04:28N 34°22' E 138°09'15611.1
2017-Dec-02 14:28N 33°49' E 135°05'613.1
2017-Dec-02 14:00N 33°54' E 135°01'613.1
2017-Dec-02 13:30N 34°00' E 135°01'612.8
2017-Dec-02 13:00N 34°07' E 134°60'612.8
2017-Dec-02 12:31N 34°13' E 134°59'612.5
2017-Dec-02 12:01N 34°19' E 134°59'612.3
2017-Dec-02 11:31N 34°25' E 135°00'611.8
2017-Dec-02 11:01N 34°31' E 135°02'510.0
2017-Dec-02 10:31N 34°36' E 135°02'4 8.9
2017-Dec-02 10:01N 34°36' E 134°57'510.3
2017-Dec-02 09:31N 34°38' E 134°51'611.3
2017-Dec-02 09:00N 34°39' E 134°44'612.1
2017-Dec-02 08:30N 34°41' E 134°37'1312.0
2017-Dec-02 07:27N 34°43' E 134°22'2 0.2
2017-Dec-01 23:11N 34°45' E 134°22'2 7.1
2017-Dec-01 22:55N 34°43' E 134°22'1 0.4
2017-Dec-01 19:39N 34°42' E 134°23'0 0.2
2017-Dec-01 19:27N 34°42' E 134°23'0 0.0
2017-Dec-01 15:21N 34°42' E 134°23'0 0.0
2017-Dec-01 14:57N 34°42' E 134°23'  
Track history (hours):
 
Tides and Currents Weather Stations Pressure Air Temp Water Temp Dewpoint Dewpoint Depression Visibility Wind Speed Wind Dir Waves Ship Positions

Sumise Maru No.32

Last reported at 2017-Dec-11 13:58 UTC. Time now 2017-Dec-14 00:19 UTC.
Position N 34°45' E 134°22'.

Length 78 m; draft 4.3 m.

Type: Cargo ship. MMSI: 431006221.

Date/timePositionNaut miles runAvg speedWind from/ knotsBaromVisibWave heightAir tempDewpointWater temp
2017-Dec-11 13:58N 34°45' E 134°22'3 0.3
2017-Dec-11 04:32N 34°42' E 134°24'1 7.2
2017-Dec-11 04:27N 34°42' E 134°24'612.3
2017-Dec-11 04:00N 34°43' E 134°31'612.3
2017-Dec-11 03:30N 34°44' E 134°38'2 0.5
2017-Dec-10 22:16N 34°46' E 134°40'0 0.0
2017-Dec-10 21:46N 34°46' E 134°40'0 0.0
2017-Dec-10 21:22N 34°46' E 134°40'0 0.0
2017-Dec-10 20:40N 34°46' E 134°40'0 0.0
2017-Dec-10 13:10N 34°46' E 134°40'0 0.0
2017-Dec-10 11:10N 34°46' E 134°40'0 0.0
2017-Dec-09 23:27N 34°47' E 134°40'2 4.2
2017-Dec-09 22:56N 34°45' E 134°39'511.1
2017-Dec-09 22:30N 34°43' E 134°33'912.1
2017-Dec-09 21:48N 34°42' E 134°23'3 8.9
2017-Dec-09 21:30N 34°45' E 134°22'0 0.1
2017-Dec-09 21:00N 34°45' E 134°22'0 0.0
2017-Dec-09 19:42N 34°45' E 134°22'0 0.0
2017-Dec-09 19:18N 34°45' E 134°22'0 0.0
2017-Dec-09 19:00N 34°45' E 134°22'0 0.1
2017-Dec-09 18:30N 34°45' E 134°22'3 6.2
2017-Dec-09 18:00N 34°42' E 134°24'0 0.0
2017-Dec-09 10:28N 34°42' E 134°24'0 0.0
2017-Dec-09 09:28N 34°42' E 134°24'0 0.0
2017-Dec-09 08:16N 34°42' E 134°24'0 0.0
2017-Dec-09 04:04N 34°42' E 134°24'3 5.2
2017-Dec-09 03:35N 34°44' E 134°22'1 8.3
2017-Dec-09 03:30N 34°45' E 134°22'0 0.0
2017-Dec-08 19:00N 34°45' E 134°22'0 0.0
2017-Dec-08 18:24N 34°45' E 134°22'0 0.0
2017-Dec-08 11:19N 34°45' E 134°22'0 0.1
2017-Dec-08 10:55N 34°45' E 134°22'3 5.3
2017-Dec-08 10:25N 34°42' E 134°22'1 2.1
2017-Dec-08 09:58N 34°42' E 134°23'3 5.1
2017-Dec-08 09:28N 34°42' E 134°26'5 9.9
2017-Dec-08 09:00N 34°42' E 134°32'611.1
2017-Dec-08 08:27N 34°41' E 134°39'510.7
2017-Dec-08 08:00N 34°40' E 134°45'510.1
2017-Dec-08 07:30N 34°38' E 134°50'4 8.6
2017-Dec-08 07:00N 34°37' E 134°56'5 9.8
2017-Dec-08 06:30N 34°37' E 135°02'510.4
2017-Dec-08 06:00N 34°36' E 135°08'611.6
2017-Dec-08 05:31N 34°37' E 135°15'5 9.7
2017-Dec-08 05:00N 34°42' E 135°14'0 0.1
2017-Dec-08 04:30N 34°42' E 135°14'0 0.0
2017-Dec-08 04:00N 34°42' E 135°14'0 0.0
2017-Dec-08 03:30N 34°42' E 135°14'0 0.0
2017-Dec-08 03:00N 34°42' E 135°14'0 0.0
2017-Dec-08 02:30N 34°42' E 135°14'0 0.0
2017-Dec-08 02:00N 34°42' E 135°14'0 0.0
2017-Dec-08 01:30N 34°42' E 135°14'0 0.0
2017-Dec-08 01:00N 34°42' E 135°14'0 0.0
2017-Dec-08 00:30N 34°42' E 135°14'0 0.0
2017-Dec-08 00:00N 34°42' E 135°14'0 0.0
2017-Dec-07 23:30N 34°42' E 135°14'1 2.0
2017-Dec-07 23:01N 34°41' E 135°15'3 5.7
2017-Dec-07 22:30N 34°40' E 135°18'3 5.9
2017-Dec-07 22:01N 34°42' E 135°16'0 0.1
2017-Dec-07 21:28N 34°42' E 135°16'0 0.0
2017-Dec-07 20:58N 34°42' E 135°16'0 0.0
2017-Dec-07 20:28N 34°42' E 135°16'0 0.0
2017-Dec-07 19:58N 34°42' E 135°16'0 0.0
2017-Dec-07 19:28N 34°42' E 135°16'0 0.0
2017-Dec-07 18:58N 34°42' E 135°16'0 0.0
2017-Dec-07 18:28N 34°42' E 135°16'0 0.0
2017-Dec-07 17:58N 34°42' E 135°16'0 0.0
2017-Dec-07 17:28N 34°42' E 135°16'0 0.0
2017-Dec-07 16:58N 34°42' E 135°16'0 0.0
2017-Dec-07 16:28N 34°42' E 135°16'0 0.0
2017-Dec-07 15:58N 34°42' E 135°16'0 0.0
2017-Dec-07 15:28N 34°42' E 135°16'0 0.0
2017-Dec-07 14:58N 34°42' E 135°16'0 0.0
2017-Dec-07 14:28N 34°42' E 135°16'0 0.0
2017-Dec-07 13:58N 34°42' E 135°16'0 0.0
2017-Dec-07 13:28N 34°42' E 135°16'0 0.0
2017-Dec-07 12:58N 34°42' E 135°16'0 0.0
2017-Dec-07 12:28N 34°42' E 135°16'0 0.0
2017-Dec-07 11:58N 34°42' E 135°16'0 0.0
2017-Dec-07 11:28N 34°42' E 135°16'0 0.0
2017-Dec-07 10:58N 34°42' E 135°16'0 0.0
2017-Dec-07 10:28N 34°42' E 135°16'0 0.0
2017-Dec-07 09:58N 34°42' E 135°16'0 0.0
2017-Dec-07 09:28N 34°42' E 135°16'0 0.0
2017-Dec-07 08:58N 34°42' E 135°16'0 0.0
2017-Dec-07 08:28N 34°42' E 135°16'0 0.0
2017-Dec-07 07:58N 34°42' E 135°16'0 0.0
2017-Dec-07 07:28N 34°42' E 135°16'0 0.0
2017-Dec-07 06:58N 34°42' E 135°16'0 0.0
2017-Dec-07 06:28N 34°42' E 135°16'0 0.0
2017-Dec-07 05:58N 34°42' E 135°16'0 0.0
2017-Dec-07 05:28N 34°42' E 135°16'0 0.0
2017-Dec-07 04:58N 34°42' E 135°16'0 0.0
2017-Dec-07 04:28N 34°42' E 135°16'0 0.0
2017-Dec-07 03:58N 34°42' E 135°16'0 0.0
2017-Dec-07 03:28N 34°42' E 135°16'0 0.0
2017-Dec-07 02:58N 34°42' E 135°16'0 0.0
2017-Dec-07 02:28N 34°42' E 135°16'0 0.0
2017-Dec-07 01:58N 34°42' E 135°16'0 0.0
2017-Dec-07 01:25N 34°42' E 135°16'0 0.0
2017-Dec-07 00:58N 34°42' E 135°16'0 0.0
2017-Dec-07 00:28N 34°42' E 135°16'0 0.0
2017-Dec-06 23:58N 34°42' E 135°16'0 0.0
2017-Dec-06 23:28N 34°42' E 135°16'0 0.0
2017-Dec-06 22:58N 34°42' E 135°16'0 0.0
2017-Dec-06 22:28N 34°42' E 135°16'0 0.0
2017-Dec-06 21:58N 34°42' E 135°16'0 0.0
2017-Dec-06 21:28N 34°42' E 135°16'0 0.0
2017-Dec-06 20:58N 34°42' E 135°16'  
2017-Dec-04 10:27N 34°40' E 139°02'2112.8
2017-Dec-04 08:48N 34°55' E 139°20'411.1
2017-Dec-04 08:28N 34°57' E 139°24'511.1
2017-Dec-04 08:00N 34°60' E 139°29'611.3
2017-Dec-04 07:30N 35°03' E 139°35'613.0
2017-Dec-04 07:00N 35°07' E 139°41'612.7
2017-Dec-04 06:31N 35°12' E 139°46'611.8
2017-Dec-04 06:01N 35°18' E 139°44'612.0
2017-Dec-04 05:31N 35°23' E 139°42'510.9
2017-Dec-04 05:00N 35°29' E 139°40'0 0.2
2017-Dec-04 04:28N 35°29' E 139°40'0 0.0
2017-Dec-04 03:58N 35°29' E 139°40'0 0.0
2017-Dec-04 03:28N 35°29' E 139°40'0 0.0
2017-Dec-04 02:58N 35°29' E 139°40'0 0.0
2017-Dec-04 02:28N 35°29' E 139°40'0 0.0
2017-Dec-04 01:58N 35°29' E 139°40'0 0.0
2017-Dec-04 01:29N 35°29' E 139°40'0 0.0
2017-Dec-04 00:58N 35°29' E 139°40'0 0.0
2017-Dec-04 00:28N 35°29' E 139°40'0 0.0
2017-Dec-03 23:58N 35°29' E 139°40'0 0.0
2017-Dec-03 23:31N 35°29' E 139°40'0 0.0
2017-Dec-03 23:01N 35°29' E 139°40'2 4.0
2017-Dec-03 22:31N 35°27' E 139°41'1 2.3
2017-Dec-03 22:00N 35°26' E 139°42'0 0.0
2017-Dec-03 21:30N 35°26' E 139°42'0 0.0
2017-Dec-03 21:00N 35°26' E 139°42'0 0.0
2017-Dec-03 20:30N 35°26' E 139°42'0 0.0
2017-Dec-03 20:00N 35°26' E 139°42'0 0.0
2017-Dec-03 19:30N 35°26' E 139°42'0 0.0
2017-Dec-03 19:00N 35°26' E 139°42'0 0.0
2017-Dec-03 18:30N 35°26' E 139°42'0 0.1
2017-Dec-03 18:00N 35°26' E 139°42'0 0.0
2017-Dec-03 17:30N 35°26' E 139°42'0 0.1
2017-Dec-03 17:00N 35°26' E 139°42'0 0.0
2017-Dec-03 16:30N 35°26' E 139°42'0 0.1
2017-Dec-03 16:00N 35°26' E 139°42'0 0.0
2017-Dec-03 15:30N 35°26' E 139°42'0 0.0
2017-Dec-03 15:00N 35°26' E 139°42'0 0.0
2017-Dec-03 14:30N 35°26' E 139°42'0 0.1
2017-Dec-03 14:00N 35°26' E 139°42'2 3.2
2017-Dec-03 13:31N 35°25' E 139°43'3 5.1
2017-Dec-03 13:01N 35°22' E 139°43'611.7
2017-Dec-03 12:30N 35°17' E 139°46'510.5
2017-Dec-03 12:01N 35°12' E 139°47'611.6
2017-Dec-03 11:30N 35°06' E 139°44'612.3
2017-Dec-03 11:01N 35°01' E 139°39'713.7
2017-Dec-03 10:30N 34°58' E 139°32'713.9
2017-Dec-03 10:00N 34°53' E 139°25'713.5
2017-Dec-03 09:30N 34°49' E 139°19'713.6
2017-Dec-03 09:00N 34°45' E 139°13'713.9
2017-Dec-03 08:30N 34°40' E 139°07'611.9
2017-Dec-03 08:00N 34°36' E 139°01'612.4
2017-Dec-03 07:30N 34°33' E 138°55'913.4
2017-Dec-03 06:49N 34°30' E 138°44'413.5
2017-Dec-03 06:30N 34°29' E 138°39'1013.0
2017-Dec-03 05:46N 34°26' E 138°28'612.6
2017-Dec-03 05:19N 34°25' E 138°22'412.4
2017-Dec-03 05:00N 34°24' E 138°17'712.5
2017-Dec-03 04:28N 34°22' E 138°09'15611.1
2017-Dec-02 14:28N 33°49' E 135°05'613.1
2017-Dec-02 14:00N 33°54' E 135°01'613.1
2017-Dec-02 13:30N 34°00' E 135°01'612.8
2017-Dec-02 13:00N 34°07' E 134°60'612.8
2017-Dec-02 12:31N 34°13' E 134°59'612.5
2017-Dec-02 12:01N 34°19' E 134°59'612.3
2017-Dec-02 11:31N 34°25' E 135°00'611.8
2017-Dec-02 11:01N 34°31' E 135°02'510.0
2017-Dec-02 10:31N 34°36' E 135°02'4 8.9
2017-Dec-02 10:01N 34°36' E 134°57'510.3
2017-Dec-02 09:31N 34°38' E 134°51'611.3
2017-Dec-02 09:00N 34°39' E 134°44'612.1
2017-Dec-02 08:30N 34°41' E 134°37'1312.0
2017-Dec-02 07:27N 34°43' E 134°22'2 0.2
2017-Dec-01 23:11N 34°45' E 134°22'2 7.1
2017-Dec-01 22:55N 34°43' E 134°22'1 0.4
2017-Dec-01 19:39N 34°42' E 134°23'0 0.2
2017-Dec-01 19:27N 34°42' E 134°23'0 0.0
2017-Dec-01 15:21N 34°42' E 134°23'0 0.0
2017-Dec-01 14:57N 34°42' E 134°23'  

Dump ship's entire track history